Aviation Digital Data Service (ADDS)

Output produced by METARs form (1200 UTC 16 July 2019)
found at http://www.aviationweather.gov/metar/data/
 
UTAA 161100Z 10010KT 070V140 9999 FEW099 43/12 Q0999 R88/CLRD70 NOSIG
TAF UTAA 161035Z 1612/1712 12016KT 6000 SCT050 TX44/1710Z 
     TEMPO 1612/1617 06014KT 
     TEMPO 1617/1624 19010KT 3000 HZ
       
UTAT 161100Z 04012KT 360V090 CAVOK 41/14 Q1001 NOSIG
TAF UTAT 161035Z 1612/1712 33014KT CAVOK 530009 
     TEMPO 1612/1618 03014KT
       
UTAM 161100Z 02014KT CAVOK 44/04 Q0999 NOSIG
TAF UTAM 161030Z 1612/1712 04014KT 5000 NSC 
     TEMPO 1612/1616 36012G22KT 
     BECMG 1704/1705 CAVOK 
     TEMPO 1706/1712 01016G26KT 3000 DRDU
       
UTAV 161100Z 01018KT CAVOK 43/05 Q0999 NOSIG
TAF UTAV 161030Z 1612/1712 34012G22KT CAVOK 
     TEMPO 1612/1618 03018G28KT 3000 DRDU SCT050
       
UTAK 161100Z 31012KT CAVOK 34/15 Q1001 R34L/CLRD70 NOSIG
TAF UTAK 161030Z 1612/1712 32018G28KT 9999 SCT040 SCT100 
     BECMG 1618/1620 36018KT 4000 BR BKN008 BKN100 
     TEMPO 1622/1703 2000 BR BKN002 SCT040CB 
     BECMG 1703/1704 9999 SCT033 SCT100